Monday, October 20, 2014
11:25 UTC
  |  Log In   |  Register Free
Airport Search:

Shenandoah Valley Regional Airport
(KSHD)

Shenandoah Valley Regional Airport Diagram
No Airport Diagram Available

FAA data valid effective September 18, 2014 - November 13, 2014 (unless otherwise noted).

 
 
 
 
 
 
 
 
 
 
 
 
 
 

Current Aviation Weather for Shenandoah Valley Regional Airport (KSHD)

The most recent METAR observation for KSHD was updated at: 1118
METAR Summary (Translated METAR)
KSHD
201055Z AUTO 17004KT 10SM CLR 01/00 A3010 RMK AO2 T00071004
KVBW
201055Z AUTO 00000KT 10SM CLR 01/00 A3009 RMK AO2 T00070003
(6.9 nm NW from KSHD)
KCHO
201053Z 25003KT 10SM CLR 03/02 A3010 RMK AO2 SLP195 T00280017
(22.2 nm SE from KSHD)
TAF Summary (Translated TAF)
KCHO
(22.2 nm SE from KSHD)
200541Z 2006/2106 00000KT P6SM FEW200 FM201500 19006KT P6SM SCT200 FM201800 19010KT P6SM SCT200 FM202200 20006KT P6SM BKN200 FM210100 00000KT P6SM BKN110
  Airport Weather Conditions for KSHD

 Current Weather at SHD
33° F
Fair
South winds at 4.6 mph
SHD NOAA Radar

Pressure: 30.10 in
Humidity: 92%
Wind: South at 4.6 MPH (4 KT)
Dew Point: 31.3°F
Visibility: 10.00 mi


Airport Weather Forecast for KSHD

Translated METAR and TAF for KSHD
Translated METAR for KSHD (1119 UTC 20 October 2014)
found at http://aviationweather.gov/adds/metars/
 
METAR text: KSHD 201115Z AUTO 00000KT 10SM CLR 01/00 A3010 RMK AO2 T00100000
Conditions at: KSHD (STAUNTON/SHENAND, VA, US) observed 1115 UTC 20 October 2014
Temperature: 1.0°C (34°F)
Dewpoint: 0.0°C (32°F) [RH = 93%]
Pressure (altimeter): 30.10 inches Hg (1019.4 mb)
Winds: calm
Visibility: 10 or more miles (16+ km)
Ceiling: at least 12,000 feet AGL
Clouds: sky clear below 12,000 feet AGL
Weather: automated observation with no human augmentation;
there may or may not be significant weather present at this time
Translated TAF for KSHD

There is no translated TAF available for this airport

Find All Airport Services Find A Hotel Find A Rental Car Find A Golf Course Find A Restaurant $100 Hamburger



FBO's on the Field
FBO Company Facility Photos Services Transportation Aviation Fuel Prices: Prices include tax
Catering Weather Repair Courtesy Rental Type 100LL JetA JetA+ MOGAS 8087
 
Avnet Shenandoah Valley

This FBO has not yet been rated
FS:Avfuel
Last Updated: Sep-30
Login to update fuel prices
SS:
Contact Avnet Shenandoah ValleyMore FBO Information
 
Add another FBO Facility Photos Catering Weather Repair Courtesy Rental Type 100LL JetA JetA+ MOGAS 8087
Services Transportation Aviation Fuel Prices: Prices include tax


model-print
model-print
model-print
model-print